createdAt,value
2017-04-23T00:00:23.806Z,1019.67
2017-04-23T00:01:24.443Z,1019.61
2017-04-23T00:02:25.082Z,1019.62
2017-04-23T00:03:25.725Z,1019.62
2017-04-23T00:04:26.572Z,1019.60
2017-04-23T00:05:27.215Z,1019.51
2017-04-23T00:06:27.858Z,1019.58
2017-04-23T00:07:28.499Z,1019.58
2017-04-23T00:08:29.139Z,1019.53
2017-04-23T00:09:29.781Z,1019.52
2017-04-23T00:10:30.424Z,1019.51
2017-04-23T00:11:31.066Z,1019.50
2017-04-23T00:12:32.210Z,1019.52
2017-04-23T00:13:32.855Z,1019.59
2017-04-23T00:14:33.500Z,1019.45
2017-04-23T00:15:34.146Z,1019.47
2017-04-23T00:16:34.785Z,1019.49
2017-04-23T00:17:35.430Z,1019.46
2017-04-23T00:18:36.072Z,1019.42
2017-04-23T00:19:36.718Z,1019.44
2017-04-23T00:20:37.508Z,1019.51
2017-04-23T00:21:38.154Z,1019.50
2017-04-23T00:22:38.795Z,1019.49
2017-04-23T00:23:39.495Z,1019.49
2017-04-23T00:24:40.138Z,1019.48
2017-04-23T00:25:40.784Z,1019.41
2017-04-23T00:26:41.428Z,1019.46
2017-04-23T00:27:42.071Z,1019.51
2017-04-23T00:28:42.914Z,1019.45
2017-04-23T00:29:43.559Z,1019.43
2017-04-23T00:30:44.200Z,1019.43
2017-04-23T00:31:44.843Z,1019.46
2017-04-23T00:32:45.484Z,1019.39
2017-04-23T00:33:46.127Z,1019.39
2017-04-23T00:34:46.777Z,1019.38
2017-04-23T00:35:47.414Z,1019.35
2017-04-23T00:36:48.209Z,1019.36
2017-04-23T00:37:48.853Z,1019.38
2017-04-23T00:38:49.497Z,1019.35
2017-04-23T00:39:50.140Z,1019.23
2017-04-23T00:40:50.782Z,1019.31
2017-04-23T00:41:51.422Z,1019.29
2017-04-23T00:42:52.063Z,1019.33
2017-04-23T00:43:52.707Z,1019.33
2017-04-23T00:44:53.355Z,1019.38
2017-04-23T00:45:54.197Z,1019.29
2017-04-23T00:46:54.838Z,1019.35
2017-04-23T00:47:55.483Z,1019.36
2017-04-23T00:48:56.125Z,1019.39
2017-04-23T00:49:56.763Z,1019.36
2017-04-23T00:50:57.407Z,1019.39
2017-04-23T00:51:58.054Z,1019.44
2017-04-23T00:52:58.697Z,1019.46
2017-04-23T00:53:59.688Z,1019.45
2017-04-23T00:55:00.333Z,1019.47
2017-04-23T00:56:00.974Z,1019.50
2017-04-23T00:57:01.620Z,1019.44
2017-04-23T00:58:02.261Z,1019.41
2017-04-23T00:59:02.902Z,1019.39
2017-04-23T01:00:03.543Z,1019.40
2017-04-23T01:01:04.186Z,1019.40
2017-04-23T01:02:05.030Z,1019.38
2017-04-23T01:03:05.676Z,1019.41
2017-04-23T01:04:06.320Z,1019.38
2017-04-23T01:05:06.966Z,1019.24
2017-04-23T01:06:07.607Z,1019.34
2017-04-23T01:07:08.251Z,1019.29
2017-04-23T01:08:08.893Z,1019.28
2017-04-23T01:09:09.536Z,1019.26
2017-04-23T01:10:10.382Z,1019.28
2017-04-23T01:11:11.023Z,1019.21
2017-04-23T01:12:11.671Z,1019.17
2017-04-23T01:13:12.312Z,1019.16
2017-04-23T01:14:12.955Z,1019.19
2017-04-23T01:15:13.600Z,1019.21
2017-04-23T01:16:14.242Z,1019.14
2017-04-23T01:17:14.889Z,1019.11
2017-04-23T01:18:15.530Z,1019.13
2017-04-23T01:19:16.325Z,1019.17
2017-04-23T01:20:16.970Z,1019.18
2017-04-23T01:21:17.617Z,1019.18
2017-04-23T01:22:18.252Z,1019.18
2017-04-23T01:23:18.897Z,1019.20
2017-04-23T01:24:19.544Z,1019.18
2017-04-23T01:25:20.180Z,1019.23
2017-04-23T01:26:20.828Z,1019.15
2017-04-23T01:27:21.673Z,1019.11
2017-04-23T01:28:22.316Z,1019.23
2017-04-23T01:29:22.961Z,1019.11
2017-04-23T01:30:23.602Z,1019.15
2017-04-23T01:31:24.245Z,1019.14
2017-04-23T01:32:24.891Z,1019.07
2017-04-23T01:33:25.534Z,1019.07
2017-04-23T01:34:26.177Z,1019.07
2017-04-23T01:35:27.117Z,1019.07
2017-04-23T01:36:27.759Z,1019.00
2017-04-23T01:37:28.402Z,1019.01
2017-04-23T01:38:29.044Z,1019.03
2017-04-23T01:39:29.681Z,1019.01
2017-04-23T01:40:30.323Z,1019.12
2017-04-23T01:41:30.967Z,1018.97
2017-04-23T01:42:31.607Z,1018.93
2017-04-23T01:43:32.450Z,1018.94
2017-04-23T01:44:33.093Z,1018.91
2017-04-23T01:45:33.736Z,1018.87
2017-04-23T01:46:34.382Z,1018.90
2017-04-23T01:47:35.022Z,1018.89
2017-04-23T01:48:35.660Z,1018.86
2017-04-23T01:49:36.302Z,1018.83
2017-04-23T01:50:36.941Z,1018.80
2017-04-23T01:51:37.784Z,1018.83
2017-04-23T01:52:38.432Z,1018.81
2017-04-23T01:53:39.072Z,1018.79
2017-04-23T01:54:39.716Z,1018.76
2017-04-23T01:55:40.359Z,1018.75
2017-04-23T01:56:41.002Z,1018.75
2017-04-23T01:57:41.643Z,1018.76
2017-04-23T01:58:42.288Z,1018.73
2017-04-23T01:59:42.928Z,1018.74
2017-04-23T02:00:43.768Z,1018.70
2017-04-23T02:01:44.415Z,1018.69
2017-04-23T02:02:45.057Z,1018.63
2017-04-23T02:03:45.701Z,1018.63
2017-04-23T02:04:46.340Z,1018.67
2017-04-23T02:05:46.980Z,1018.60
2017-04-23T02:06:47.621Z,1018.64
2017-04-23T02:07:48.267Z,1018.65
2017-04-23T02:08:49.063Z,1018.62
2017-04-23T02:09:49.704Z,1018.64
2017-04-23T02:10:50.350Z,1018.64
2017-04-23T02:11:50.993Z,1018.62
2017-04-23T02:12:51.636Z,1018.55
2017-04-23T02:13:52.336Z,1018.61
2017-04-23T02:14:52.980Z,1018.58
2017-04-23T02:15:53.624Z,1018.60
2017-04-23T02:16:54.571Z,1018.56
2017-04-23T02:17:55.210Z,1018.61
2017-04-23T02:18:55.850Z,1018.56
2017-04-23T02:19:56.493Z,1018.56
2017-04-23T02:20:57.139Z,1018.60
2017-04-23T02:21:57.777Z,1018.61
2017-04-23T02:22:58.422Z,1018.57
2017-04-23T02:23:59.066Z,1018.57
2017-04-23T02:25:00.226Z,1018.58
2017-04-23T02:26:00.869Z,1018.57
2017-04-23T02:27:01.512Z,1018.60
2017-04-23T02:28:02.149Z,1018.55
2017-04-23T02:29:02.793Z,1018.53
2017-04-23T02:30:03.436Z,1018.50
2017-04-23T02:31:04.073Z,1018.53
2017-04-23T02:32:04.718Z,1018.57
2017-04-23T02:33:05.354Z,1018.54
2017-04-23T02:34:06.152Z,1018.52
2017-04-23T02:35:06.793Z,1018.53
2017-04-23T02:36:07.438Z,1018.48
2017-04-23T02:37:08.079Z,1018.52
2017-04-23T02:38:09.041Z,1018.60
2017-04-23T02:39:09.685Z,1018.54
2017-04-23T02:40:10.327Z,1018.53
2017-04-23T02:41:10.967Z,1018.54
2017-04-23T02:42:11.811Z,1018.61
2017-04-23T02:43:12.450Z,1018.53
2017-04-23T02:44:13.092Z,1018.59
2017-04-23T02:45:13.732Z,1018.55
2017-04-23T02:46:14.380Z,1018.62
2017-04-23T02:47:15.017Z,1018.57
2017-04-23T02:48:15.660Z,1018.50
2017-04-23T02:49:16.305Z,1018.50
2017-04-23T02:50:17.096Z,1018.50
2017-04-23T02:51:17.741Z,1018.51
2017-04-23T02:52:18.382Z,1018.54
2017-04-23T02:53:19.027Z,1018.54
2017-04-23T02:54:19.668Z,1018.52
2017-04-23T02:55:20.311Z,1018.45
2017-04-23T02:56:20.955Z,1018.58
2017-04-23T02:57:21.596Z,1018.51
2017-04-23T02:58:22.437Z,1018.50
2017-04-23T02:59:23.084Z,1018.50
2017-04-23T03:00:23.728Z,1018.49
2017-04-23T03:01:24.364Z,1018.49
2017-04-23T03:02:25.007Z,1018.47
2017-04-23T03:03:25.650Z,1018.54
2017-04-23T03:04:26.291Z,1018.47
2017-04-23T03:05:26.931Z,1018.55
2017-04-23T03:06:27.773Z,1018.51
2017-04-23T03:07:28.414Z,1018.48
2017-04-23T03:08:29.057Z,1018.55
2017-04-23T03:09:29.700Z,1018.55
2017-04-23T03:10:30.354Z,1018.54
2017-04-23T03:11:30.990Z,1018.53
2017-04-23T03:12:31.633Z,1018.57
2017-04-23T03:13:32.277Z,1018.60
2017-04-23T03:14:32.918Z,1018.54
2017-04-23T03:15:33.761Z,1018.58
2017-04-23T03:16:34.403Z,1018.52
2017-04-23T03:17:35.047Z,1018.54
2017-04-23T03:18:35.689Z,1018.50
2017-04-23T03:19:36.332Z,1018.57
2017-04-23T03:20:36.975Z,1018.49
2017-04-23T03:21:37.619Z,1018.50
2017-04-23T03:22:38.262Z,1018.50
2017-04-23T03:23:39.055Z,1018.54
2017-04-23T03:24:39.699Z,1018.56
2017-04-23T03:25:40.338Z,1018.51
2017-04-23T03:26:40.987Z,1018.48
2017-04-23T03:27:41.624Z,1018.47
2017-04-23T03:28:42.265Z,1018.44
2017-04-23T03:29:42.905Z,1018.50
2017-04-23T03:30:43.549Z,1018.40
2017-04-23T03:31:44.545Z,1018.46
2017-04-23T03:32:45.185Z,1018.48
2017-04-23T03:33:45.829Z,1018.46
2017-04-23T03:34:46.471Z,1018.46
2017-04-23T03:35:47.113Z,1018.50
2017-04-23T03:36:47.755Z,1018.46
2017-04-23T03:37:48.398Z,1018.38
2017-04-23T03:38:49.041Z,1018.39
2017-04-23T03:39:49.835Z,1018.36
2017-04-23T03:40:50.474Z,1018.47
2017-04-23T03:41:51.119Z,1018.46
2017-04-23T03:42:51.762Z,1018.43
2017-04-23T03:43:52.406Z,1018.45
2017-04-23T03:44:53.048Z,1018.48
2017-04-23T03:45:53.691Z,1018.38
2017-04-23T03:46:54.334Z,1018.34
2017-04-23T03:47:54.975Z,1018.40
2017-04-23T03:48:55.815Z,1018.38
2017-04-23T03:49:56.458Z,1018.37
2017-04-23T03:50:57.101Z,1018.35
2017-04-23T03:51:57.745Z,1018.46
2017-04-23T03:52:58.387Z,1018.33
2017-04-23T03:53:59.030Z,1018.35
2017-04-23T03:54:59.674Z,1018.49
2017-04-23T03:56:00.316Z,1018.38
2017-04-23T03:57:01.155Z,1018.35
2017-04-23T03:58:01.801Z,1018.40
2017-04-23T03:59:02.446Z,1018.47
2017-04-23T04:00:03.084Z,1018.43
2017-04-23T04:01:03.729Z,1018.49
2017-04-23T04:02:04.369Z,1018.45
2017-04-23T04:03:05.011Z,1018.49
2017-04-23T04:04:05.653Z,1018.40
2017-04-23T04:05:06.445Z,1018.41
2017-04-23T04:06:07.091Z,1018.45
2017-04-23T04:07:07.731Z,1018.43
2017-04-23T04:08:08.375Z,1018.46
2017-04-23T04:09:09.020Z,1018.43
2017-04-23T04:10:09.658Z,1018.44
2017-04-23T04:11:10.299Z,1018.37
2017-04-23T04:12:10.942Z,1018.45
2017-04-23T04:13:11.783Z,1018.39
2017-04-23T04:14:12.428Z,1018.33
2017-04-23T04:15:13.066Z,1018.38
2017-04-23T04:16:13.709Z,1018.35
2017-04-23T04:17:14.353Z,1018.39
2017-04-23T04:18:14.998Z,1018.34
2017-04-23T04:19:15.631Z,1018.33
2017-04-23T04:20:16.273Z,1018.30
2017-04-23T04:21:17.066Z,1018.35
2017-04-23T04:22:17.709Z,1018.28
2017-04-23T04:23:18.354Z,1018.35
2017-04-23T04:24:18.994Z,1018.25
2017-04-23T04:25:19.638Z,1018.28
2017-04-23T04:26:20.275Z,1018.24
2017-04-23T04:27:20.921Z,1018.24
2017-04-23T04:28:21.563Z,1018.29
2017-04-23T04:29:22.206Z,1018.21
2017-04-23T04:30:23.047Z,1018.25
2017-04-23T04:31:23.692Z,1018.17
2017-04-23T04:32:24.335Z,1018.12
2017-04-23T04:33:24.979Z,1018.23
2017-04-23T04:34:25.621Z,1018.22
2017-04-23T04:35:26.262Z,1018.14
2017-04-23T04:36:26.906Z,1018.10
2017-04-23T04:37:27.545Z,1018.19
2017-04-23T04:38:28.387Z,1018.17
2017-04-23T04:39:29.026Z,1018.19
2017-04-23T04:40:29.668Z,1018.15
2017-04-23T04:41:30.306Z,1018.19
2017-04-23T04:42:30.951Z,1018.15
2017-04-23T04:43:31.590Z,1018.16
2017-04-23T04:44:32.233Z,1018.10
2017-04-23T04:45:32.874Z,1018.12
2017-04-23T04:46:33.718Z,1018.12
2017-04-23T04:47:34.362Z,1018.14
2017-04-23T04:48:35.005Z,1018.18
2017-04-23T04:49:35.648Z,1018.16
2017-04-23T04:50:36.289Z,1018.21
2017-04-23T04:51:36.927Z,1018.09
2017-04-23T04:52:37.567Z,1018.07
2017-04-23T04:53:38.216Z,1018.18
2017-04-23T04:54:39.057Z,1018.14
2017-04-23T04:55:39.699Z,1018.14
2017-04-23T04:56:40.339Z,1018.11
2017-04-23T04:57:40.979Z,1018.26
2017-04-23T04:58:41.623Z,1018.14
2017-04-23T04:59:42.264Z,1018.11
2017-04-23T05:00:42.902Z,1018.16
2017-04-23T05:01:43.541Z,1018.13
2017-04-23T05:02:44.186Z,1018.03
2017-04-23T05:03:45.130Z,1018.09
2017-04-23T05:04:45.770Z,1018.12
2017-04-23T05:05:46.437Z,1018.17
2017-04-23T05:06:47.056Z,1018.11
2017-04-23T05:07:47.698Z,1018.15
2017-04-23T05:08:48.343Z,1018.13
2017-04-23T05:09:48.985Z,1018.13
2017-04-23T05:10:49.624Z,1018.10
2017-04-23T05:11:50.466Z,1018.14
2017-04-23T05:12:51.108Z,1018.15
2017-04-23T05:13:51.763Z,1018.18
2017-04-23T05:14:52.403Z,1018.10
2017-04-23T05:15:53.041Z,1018.09
2017-04-23T05:16:53.683Z,1018.15
2017-04-23T05:17:54.325Z,1018.07
2017-04-23T05:18:54.966Z,1018.02
2017-04-23T05:19:55.801Z,1018.04
2017-04-23T05:20:56.449Z,1018.09
2017-04-23T05:21:57.090Z,1018.09
2017-04-23T05:22:57.727Z,1018.04
2017-04-23T05:23:58.366Z,1018.08
2017-04-23T05:24:59.012Z,1018.04
2017-04-23T05:25:59.653Z,1018.09
2017-04-23T05:27:00.297Z,1018.06
2017-04-23T05:28:01.135Z,1018.06
2017-04-23T05:29:01.774Z,1018.06
2017-04-23T05:30:02.414Z,1018.04
2017-04-23T05:31:03.055Z,1018.06
2017-04-23T05:32:03.692Z,1018.04
2017-04-23T05:33:04.343Z,1018.15
2017-04-23T05:34:04.983Z,1018.08
2017-04-23T05:35:05.619Z,1018.19
2017-04-23T05:36:06.513Z,1018.15
2017-04-23T05:37:07.153Z,1018.10
2017-04-23T05:38:07.796Z,1018.15
2017-04-23T05:39:08.440Z,1018.20
2017-04-23T05:40:09.084Z,1018.23
2017-04-23T05:41:09.725Z,1018.20
2017-04-23T05:42:10.366Z,1018.24
2017-04-23T05:43:11.010Z,1018.23
2017-04-23T05:44:11.652Z,1018.26
2017-04-23T05:45:12.696Z,1018.28
2017-04-23T05:46:13.344Z,1018.22
2017-04-23T05:47:13.980Z,1018.28
2017-04-23T05:48:14.622Z,1018.30
2017-04-23T05:49:15.264Z,1018.30
2017-04-23T05:50:15.904Z,1018.30
2017-04-23T05:51:16.542Z,1018.35
2017-04-23T05:52:17.186Z,1018.45
2017-04-23T05:53:18.177Z,1018.38
2017-04-23T05:54:18.821Z,1018.39
2017-04-23T05:55:19.416Z,1018.42
2017-04-23T05:56:20.058Z,1018.45
2017-04-23T05:57:20.697Z,1018.43
2017-04-23T05:58:21.339Z,1018.47
2017-04-23T05:59:21.980Z,1018.34
2017-04-23T06:00:22.624Z,1018.37
2017-04-23T06:01:23.463Z,1018.34
2017-04-23T06:02:24.102Z,1018.24
2017-04-23T06:03:24.743Z,1018.19
2017-04-23T06:04:25.389Z,1018.21
2017-04-23T06:05:26.038Z,1018.20
2017-04-23T06:06:26.678Z,1018.15
2017-04-23T06:07:27.319Z,1018.20
2017-04-23T06:08:27.958Z,1018.24
2017-04-23T06:09:28.800Z,1018.14
2017-04-23T06:10:29.444Z,1018.15
2017-04-23T06:11:30.082Z,1018.15
2017-04-23T06:12:30.726Z,1018.14
2017-04-23T06:13:31.368Z,1018.25
2017-04-23T06:14:32.008Z,1018.20
2017-04-23T06:15:32.650Z,1018.25
2017-04-23T06:16:33.296Z,1018.32
2017-04-23T06:17:33.940Z,1018.24
2017-04-23T06:18:34.779Z,1018.28
2017-04-23T06:19:35.422Z,1018.31
2017-04-23T06:20:36.067Z,1018.32
2017-04-23T06:21:36.705Z,1018.25
2017-04-23T06:22:37.349Z,1018.30
2017-04-23T06:23:37.988Z,1018.27
2017-04-23T06:24:38.628Z,1018.24
2017-04-23T06:25:39.273Z,1018.29
2017-04-23T06:26:40.065Z,1018.30
2017-04-23T06:27:40.708Z,1018.29
2017-04-23T06:28:41.353Z,1018.29
2017-04-23T06:29:42.053Z,1018.34
2017-04-23T06:30:42.694Z,1018.38
2017-04-23T06:31:43.337Z,1018.34
2017-04-23T06:32:43.979Z,1018.31
2017-04-23T06:33:44.623Z,1018.25
2017-04-23T06:34:45.469Z,1018.39
2017-04-23T06:35:46.113Z,1018.35
2017-04-23T06:36:46.757Z,1018.32
2017-04-23T06:37:47.396Z,1018.39
2017-04-23T06:38:48.043Z,1018.29
2017-04-23T06:39:48.685Z,1018.41
2017-04-23T06:40:49.323Z,1018.29
2017-04-23T06:41:49.965Z,1018.42
2017-04-23T06:42:50.763Z,1018.39
2017-04-23T06:43:51.400Z,1018.35
2017-04-23T06:44:52.042Z,1018.37
2017-04-23T06:45:52.681Z,1018.42
2017-04-23T06:46:53.324Z,1018.34
2017-04-23T06:47:53.962Z,1018.40
2017-04-23T06:48:54.607Z,1018.32
2017-04-23T06:49:55.250Z,1018.32
2017-04-23T06:50:56.090Z,1018.32
2017-04-23T06:51:56.732Z,1018.36
2017-04-23T06:52:57.376Z,1018.30
2017-04-23T06:53:58.021Z,1018.28
2017-04-23T06:54:58.665Z,1018.34
2017-04-23T06:55:59.305Z,1018.29
2017-04-23T06:56:59.948Z,1018.44
2017-04-23T06:58:00.597Z,1018.34
2017-04-23T06:59:01.232Z,1018.26
2017-04-23T07:00:02.026Z,1018.33
2017-04-23T07:01:02.669Z,1018.25
2017-04-23T07:02:03.311Z,1018.35
2017-04-23T07:03:03.953Z,1018.47
2017-04-23T07:04:04.597Z,1018.34
2017-04-23T07:05:05.236Z,1018.34
2017-04-23T07:06:05.877Z,1018.38
2017-04-23T07:07:06.516Z,1018.40
2017-04-23T07:08:07.357Z,1018.38
2017-04-23T07:09:07.995Z,1018.34
2017-04-23T07:10:08.637Z,1018.38
2017-04-23T07:11:09.279Z,1018.40
2017-04-23T07:12:09.918Z,1018.39
2017-04-23T07:13:10.562Z,1018.41
2017-04-23T07:14:11.205Z,1018.38
2017-04-23T07:15:11.849Z,1018.35
2017-04-23T07:16:12.692Z,1018.41
2017-04-23T07:17:13.330Z,1018.36
2017-04-23T07:18:13.977Z,1018.37
2017-04-23T07:19:14.618Z,1018.44
2017-04-23T07:20:15.261Z,1018.43
2017-04-23T07:21:15.901Z,1018.39
2017-04-23T07:22:16.546Z,1018.39
2017-04-23T07:23:17.185Z,1018.37
2017-04-23T07:24:18.029Z,1018.37
2017-04-23T07:25:18.671Z,1018.38
2017-04-23T07:26:19.311Z,1018.35
2017-04-23T07:27:19.954Z,1018.40
2017-04-23T07:28:20.591Z,1018.44
2017-04-23T07:29:21.236Z,1018.33
2017-04-23T07:30:21.877Z,1018.39
2017-04-23T07:31:22.521Z,1018.31
2017-04-23T07:32:23.163Z,1018.38
2017-04-23T07:33:23.954Z,1018.38
2017-04-23T07:34:24.598Z,1018.38
2017-04-23T07:35:25.240Z,1018.45
2017-04-23T07:36:25.876Z,1018.38
2017-04-23T07:37:26.516Z,1018.44
2017-04-23T07:38:27.156Z,1018.43
2017-04-23T07:39:27.797Z,1018.40
2017-04-23T07:40:28.441Z,1018.37
2017-04-23T07:41:29.283Z,1018.38
2017-04-23T07:42:29.928Z,1018.43
2017-04-23T07:43:30.567Z,1018.43
2017-04-23T07:44:31.212Z,1018.43
2017-04-23T07:45:31.850Z,1018.39
2017-04-23T07:46:32.499Z,1018.39
2017-04-23T07:47:33.134Z,1018.40
2017-04-23T07:48:33.776Z,1018.46
2017-04-23T07:49:34.770Z,1018.45
2017-04-23T07:50:35.410Z,1018.46
2017-04-23T07:51:36.053Z,1018.47
2017-04-23T07:52:36.697Z,1018.53
2017-04-23T07:53:37.339Z,1018.47
2017-04-23T07:54:37.982Z,1018.48
2017-04-23T07:55:38.625Z,1018.45
2017-04-23T07:56:39.268Z,1018.48
2017-04-23T07:57:40.112Z,1018.42
2017-04-23T07:58:40.755Z,1018.40
2017-04-23T07:59:41.400Z,1018.40
2017-04-23T08:00:42.048Z,1018.46
2017-04-23T08:01:42.681Z,1018.40
2017-04-23T08:02:43.319Z,1018.37
2017-04-23T08:03:43.963Z,1018.35
2017-04-23T08:04:44.604Z,1018.45
2017-04-23T08:05:45.444Z,1018.42
2017-04-23T08:06:46.085Z,1018.42
2017-04-23T08:07:46.723Z,1018.46
2017-04-23T08:08:47.367Z,1018.43
2017-04-23T08:09:48.009Z,1018.45
2017-04-23T08:10:48.653Z,1018.49
2017-04-23T08:11:49.296Z,1018.49
2017-04-23T08:12:49.938Z,1018.49
2017-04-23T08:13:50.577Z,1018.49
2017-04-23T08:14:51.419Z,1018.44
2017-04-23T08:15:52.063Z,1018.49
2017-04-23T08:16:52.706Z,1018.51
2017-04-23T08:17:53.346Z,1018.51
2017-04-23T08:18:53.985Z,1018.49
2017-04-23T08:19:54.629Z,1018.56
2017-04-23T08:20:55.272Z,1018.51
2017-04-23T08:21:55.918Z,1018.52
2017-04-23T08:22:57.005Z,1018.64
2017-04-23T08:23:57.649Z,1018.54
2017-04-23T08:24:58.295Z,1018.50
2017-04-23T08:25:58.934Z,1018.59
2017-04-23T08:26:59.578Z,1018.59
2017-04-23T08:28:00.221Z,1018.52
2017-04-23T08:29:00.862Z,1018.51
2017-04-23T08:30:01.507Z,1018.57
2017-04-23T08:31:02.353Z,1018.54
2017-04-23T08:32:02.993Z,1018.60
2017-04-23T08:33:03.633Z,1018.55
2017-04-23T08:34:04.276Z,1018.67
2017-04-23T08:35:04.918Z,1018.57
2017-04-23T08:36:05.560Z,1018.63
2017-04-23T08:37:06.203Z,1018.60
2017-04-23T08:38:06.850Z,1018.60
2017-04-23T08:39:07.640Z,1018.57
2017-04-23T08:40:08.282Z,1018.62
2017-04-23T08:41:08.879Z,1018.61
2017-04-23T08:42:09.520Z,1018.59
2017-04-23T08:43:10.160Z,1018.54
2017-04-23T08:44:10.805Z,1018.55
2017-04-23T08:45:11.445Z,1018.56
2017-04-23T08:46:12.088Z,1018.58
2017-04-23T08:47:12.725Z,1018.56
2017-04-23T08:48:13.570Z,1018.57
2017-04-23T08:49:14.211Z,1018.51
2017-04-23T08:50:14.855Z,1018.52
2017-04-23T08:51:15.502Z,1018.52
2017-04-23T08:52:16.145Z,1018.52
2017-04-23T08:53:16.785Z,1018.47
2017-04-23T08:54:17.426Z,1018.42
2017-04-23T08:55:18.068Z,1018.43
2017-04-23T08:56:19.012Z,1018.45
2017-04-23T08:57:19.656Z,1018.46
2017-04-23T08:58:20.298Z,1018.50
2017-04-23T08:59:20.942Z,1018.37
2017-04-23T09:00:21.580Z,1018.36
2017-04-23T09:01:22.225Z,1018.42
2017-04-23T09:02:22.867Z,1018.40
2017-04-23T09:03:23.510Z,1018.29
2017-04-23T09:04:24.355Z,1018.34
2017-04-23T09:05:24.993Z,1018.41
2017-04-23T09:06:25.637Z,1018.34
2017-04-23T09:07:26.277Z,1018.46
2017-04-23T09:08:26.920Z,1018.40
2017-04-23T09:09:27.564Z,1018.49
2017-04-23T09:10:28.208Z,1018.46
2017-04-23T09:11:28.851Z,1018.39
2017-04-23T09:12:29.637Z,1018.41
2017-04-23T09:13:30.279Z,1018.40
2017-04-23T09:14:30.921Z,1018.41
2017-04-23T09:15:31.571Z,1018.36
2017-04-23T09:16:32.207Z,1018.41
2017-04-23T09:17:32.852Z,1018.42
2017-04-23T09:18:33.496Z,1018.37
2017-04-23T09:19:34.139Z,1018.39
2017-04-23T09:20:34.982Z,1018.40
2017-04-23T09:21:35.624Z,1018.42
2017-04-23T09:22:36.268Z,1018.49
2017-04-23T09:23:36.912Z,1018.44
2017-04-23T09:24:37.558Z,1018.44
2017-04-23T09:25:38.199Z,1018.37
2017-04-23T09:26:38.843Z,1018.42
2017-04-23T09:27:39.483Z,1018.45
2017-04-23T09:28:40.124Z,1018.42
2017-04-23T09:29:40.972Z,1018.34
2017-04-23T09:30:41.622Z,1018.37
2017-04-23T09:31:42.273Z,1018.40
2017-04-23T09:32:42.920Z,1018.36
2017-04-23T09:33:43.568Z,1018.38
2017-04-23T09:34:44.217Z,1018.42
2017-04-23T09:35:44.868Z,1018.39
2017-04-23T09:36:45.516Z,1018.38
2017-04-23T09:37:46.311Z,1018.36
2017-04-23T09:38:46.961Z,1018.35
2017-04-23T09:39:47.607Z,1018.40
2017-04-23T09:40:48.254Z,1018.41
2017-04-23T09:41:48.902Z,1018.40
2017-04-23T09:42:49.548Z,1018.43
2017-04-23T09:43:50.194Z,1018.40
2017-04-23T09:44:50.846Z,1018.45
2017-04-23T09:45:51.690Z,1018.38
2017-04-23T09:46:52.339Z,1018.44
2017-04-23T09:47:52.984Z,1018.45
2017-04-23T09:48:53.631Z,1018.36
2017-04-23T09:49:54.274Z,1018.42
2017-04-23T09:50:54.924Z,1018.42
2017-04-23T09:51:55.572Z,1018.46
2017-04-23T09:52:56.221Z,1018.42
2017-04-23T09:53:57.014Z,1018.53
2017-04-23T09:54:57.663Z,1018.47
2017-04-23T09:55:58.310Z,1018.52
2017-04-23T09:56:58.954Z,1018.47
2017-04-23T09:57:59.604Z,1018.50
2017-04-23T09:59:00.254Z,1018.50
2017-04-23T10:00:00.904Z,1018.41
2017-04-23T10:01:01.553Z,1018.50
2017-04-23T10:02:02.203Z,1018.42
2017-04-23T10:03:03.052Z,1018.41
2017-04-23T10:04:03.700Z,1018.51
2017-04-23T10:05:04.348Z,1018.51
2017-04-23T10:06:04.995Z,1018.47
2017-04-23T10:07:05.643Z,1018.53
2017-04-23T10:08:06.287Z,1018.42
2017-04-23T10:09:06.935Z,1018.48
2017-04-23T10:10:07.586Z,1018.51
2017-04-23T10:11:08.431Z,1018.39
2017-04-23T10:12:09.080Z,1018.47
2017-04-23T10:13:09.733Z,1018.48
2017-04-23T10:14:10.375Z,1018.47
2017-04-23T10:15:11.022Z,1018.39
2017-04-23T10:16:11.669Z,1018.49
2017-04-23T10:17:12.320Z,1018.48
2017-04-23T10:18:13.055Z,1018.46
2017-04-23T10:19:14.034Z,1018.44
2017-04-23T10:20:14.689Z,1018.45
2017-04-23T10:21:15.333Z,1018.41
2017-04-23T10:22:15.987Z,1018.41
2017-04-23T10:23:16.636Z,1018.44
2017-04-23T10:24:17.288Z,1018.50
2017-04-23T10:25:17.940Z,1018.47
2017-04-23T10:26:18.593Z,1018.47
2017-04-23T10:27:19.444Z,1018.54
2017-04-23T10:28:20.089Z,1018.58
2017-04-23T10:29:20.738Z,1018.49
2017-04-23T10:30:21.433Z,1018.52
2017-04-23T10:31:22.084Z,1018.54
2017-04-23T10:32:22.732Z,1018.54
2017-04-23T10:33:23.381Z,1018.44
2017-04-23T10:34:24.032Z,1018.48
2017-04-23T10:35:24.825Z,1018.47
2017-04-23T10:36:25.475Z,1018.48
2017-04-23T10:37:26.123Z,1018.47
2017-04-23T10:38:26.776Z,1018.45
2017-04-23T10:39:27.427Z,1018.44
2017-04-23T10:40:28.077Z,1018.51
2017-04-23T10:41:28.726Z,1018.45
2017-04-23T10:42:29.381Z,1018.42
2017-04-23T10:43:30.035Z,1018.52
2017-04-23T10:44:30.889Z,1018.48
2017-04-23T10:45:31.541Z,1018.51
2017-04-23T10:46:32.200Z,1018.54
2017-04-23T10:47:32.856Z,1018.55
2017-04-23T10:48:33.511Z,1018.50
2017-04-23T10:49:34.161Z,1018.53
2017-04-23T10:50:34.817Z,1018.58
2017-04-23T10:51:35.676Z,1018.52
2017-04-23T10:52:36.283Z,1018.48
2017-04-23T10:53:36.937Z,1018.54
2017-04-23T10:54:37.594Z,1018.51
2017-04-23T10:55:38.252Z,1018.53
2017-04-23T10:56:38.908Z,1018.56
2017-04-23T10:57:39.565Z,1018.54
2017-04-23T10:58:40.220Z,1018.53
2017-04-23T10:59:41.024Z,1018.45
2017-04-23T11:00:41.686Z,1018.51
2017-04-23T11:01:42.346Z,1018.49
2017-04-23T11:02:43.004Z,1018.41
2017-04-23T11:03:43.666Z,1018.49
2017-04-23T11:04:44.328Z,1018.43
2017-04-23T11:05:44.993Z,1018.37
2017-04-23T11:06:45.651Z,1018.39
2017-04-23T11:07:46.512Z,1018.42
2017-04-23T11:08:47.174Z,1018.48
2017-04-23T11:09:47.836Z,1018.46
2017-04-23T11:10:48.499Z,1018.46
2017-04-23T11:11:49.157Z,1018.44
2017-04-23T11:12:49.819Z,1018.45
2017-04-23T11:13:50.485Z,1018.48
2017-04-23T11:14:51.147Z,1018.46
2017-04-23T11:15:52.010Z,1018.42
2017-04-23T11:16:52.672Z,1018.45
2017-04-23T11:17:53.337Z,1018.42
2017-04-23T11:18:54.007Z,1018.45
2017-04-23T11:19:54.664Z,1018.45
2017-04-23T11:20:55.331Z,1018.45
2017-04-23T11:21:55.994Z,1018.33
2017-04-23T11:22:56.660Z,1018.41
2017-04-23T11:23:57.472Z,1018.30
2017-04-23T11:24:58.135Z,1018.40
2017-04-23T11:25:58.800Z,1018.35
2017-04-23T11:26:59.460Z,1018.33
2017-04-23T11:28:00.126Z,1018.38
2017-04-23T11:29:00.791Z,1018.30
2017-04-23T11:30:01.460Z,1018.32
2017-04-23T11:31:02.124Z,1018.27
2017-04-23T11:32:02.790Z,1018.17
2017-04-23T11:33:03.805Z,1018.31
2017-04-23T11:34:04.474Z,1018.20
2017-04-23T11:35:05.416Z,1018.30
2017-04-23T11:36:06.076Z,1018.27
2017-04-23T11:37:06.742Z,1018.25
2017-04-23T11:38:07.408Z,1018.27
2017-04-23T11:39:08.070Z,1018.21
2017-04-23T11:40:08.731Z,1018.27
2017-04-23T11:41:09.550Z,1018.32
2017-04-23T11:42:10.216Z,1018.25
2017-04-23T11:43:10.884Z,1018.23
2017-04-23T11:44:11.550Z,1018.21
2017-04-23T11:45:12.214Z,1018.24
2017-04-23T11:46:12.880Z,1018.28
2017-04-23T11:47:13.550Z,1018.28
2017-04-23T11:48:14.218Z,1018.34
2017-04-23T11:49:15.035Z,1018.34
2017-04-23T11:50:15.705Z,1018.33
2017-04-23T11:51:16.379Z,1018.27
2017-04-23T11:52:16.990Z,1018.27
2017-04-23T11:53:17.662Z,1018.28
2017-04-23T11:54:18.327Z,1018.28
2017-04-23T11:55:19.046Z,1018.30
2017-04-23T11:56:19.712Z,1018.28
2017-04-23T11:57:20.527Z,1018.31
2017-04-23T11:58:21.194Z,1018.25
2017-04-23T11:59:21.863Z,1018.22
2017-04-23T12:00:22.531Z,1018.23
2017-04-23T12:01:23.198Z,1018.26
2017-04-23T12:02:23.860Z,1018.24
2017-04-23T12:03:24.527Z,1018.19
2017-04-23T12:04:25.190Z,1018.27
2017-04-23T12:05:25.851Z,1018.15
2017-04-23T12:06:26.818Z,1018.13
2017-04-23T12:07:27.482Z,1018.21
2017-04-23T12:08:28.152Z,1018.09
2017-04-23T12:09:28.821Z,1018.17
2017-04-23T12:10:29.488Z,1018.17
2017-04-23T12:11:30.153Z,1018.13
2017-04-23T12:12:30.819Z,1018.17
2017-04-23T12:13:31.489Z,1018.08